Ellenburg Center, NY

8:46 AM EDT on September 16, 2014 (GMT -0400)
Plattsburgh International | Change Station
CLOSE
Current Station
Airport
Location: Plattsburgh,
Elevation: 236 ft
Nearby Weather Stations

Elev 236 ft 44.65 °N, 73.47 °W | Updated 53 minutes ago

Overcast
Overcast
52 °F
Feels Like 52 °F
N
0
Wind Variable Wind from North

Today
High -- | Low -- °F
--% Chance of Precip.
Yesterday
High -- | Low -- °F
Precip. -- in
6:35 AM 7:04 PM
Last Quarter, 46% visible
Pressure 30.00 in
Visibility 7.0 miles
Clouds Few 4200 ft
Mostly Cloudy 8000 ft
Overcast 9000 ft
Dew Point 51 °F
Humidity 97%
Rainfall 0.21 in
Snow Depth Not available.
UV 0 out of 12
Pollen .40 out of 12
Air Quality Not available.
Flu Activity Not available.
METAR KPBG 161153Z AUTO 00000KT 7SM -RA FEW042 BKN080 OVC090 11/11 A3000 RMK AO2 SLP159 P0001 60021 70021 T01110106 10111 20106 53001

More Conditions Fewer Conditions

Pressure 30.00 in
Visibility 7.0 miles
Clouds Few 4200 ft
Mostly Cloudy 8000 ft
Overcast 9000 ft
Dew Point 51 °F
Humidity 97%
Rainfall 0.21 in
Snow Depth Not available.
UV 0 out of 12
Pollen .40 out of 12
Air Quality Not available.
Flu Activity Not available.
METAR KPBG 161153Z AUTO 00000KT 7SM -RA FEW042 BKN080 OVC090 11/11 A3000 RMK AO2 SLP159 P0001 60021 70021 T01110106 10111 20106 53001

More Conditions Fewer Conditions

10-Day Weather Forecast

Almanac

Astronomy

Sep. 16, 2014 Rise Set
Actual Time 6:35 AM EDT 7:04 PM EDT
Civil Twilight 6:05 AM EDT 7:33 PM EDT
Nautical Twilight 5:31 AM EDT 8:08 PM EDT
Astronomical Twilight 4:55 AM EDT 8:44 PM EDT
Moon No Moon Rise 2:36 PM EDT
Length of Visible Light 13h 27m
Length of Day
12h 29m
Tomorrow will be 3m 5s shorter.
Last Quarter, 46% of the Moon is Illuminated
Today
Last Quarter
Sep 24
New
Oct 1
First Quarter
Oct 8
Full
Oct 15
Last Quarter

Today's Extremes

State Highs State Lows

Community

WunderPhotos

Upload Photos

1,753,756 photos uploaded!

Nearby

Air Quality

  Air Quality AQ Index Pollutant
Tuesday Good
OZONE
Tuesday Good
PM2.5

Snow Depth

Station Depth Elevation
No new snow has been reported.

Earthquake Activity

City Distance Mag. Time & Date
No recent earthquake activity has been reported nearby.
Minimum magnitude displayed is 2.5.

Coastal Water Temperatures

Place Temperature
No Stations Reporting

Nearby Weather Stations